createdAt,value
2023-03-22T00:00:47.811Z,10.21
2023-03-22T00:03:15.289Z,10.15
2023-03-22T00:05:44.121Z,10.07
2023-03-22T00:08:13.314Z,10.12
2023-03-22T00:13:43.869Z,9.94
2023-03-22T00:16:11.753Z,10.07
2023-03-22T00:18:39.228Z,9.99
2023-03-22T00:21:12.090Z,10.10
2023-03-22T00:26:36.117Z,10.09
2023-03-22T00:29:04.768Z,10.02
2023-03-22T00:34:32.131Z,10.37
2023-03-22T00:37:02.122Z,10.23
2023-03-22T00:39:29.975Z,10.15
2023-03-22T00:41:57.464Z,10.13
2023-03-22T00:44:25.265Z,10.28
2023-03-22T00:49:55.596Z,10.48
2023-03-22T00:52:25.207Z,10.15
2023-03-22T00:54:52.705Z,10.21
2023-03-22T00:57:20.476Z,10.09
2023-03-22T00:59:48.174Z,9.94
2023-03-22T01:02:15.911Z,9.85
2023-03-22T01:04:46.182Z,9.96
2023-03-22T01:07:17.906Z,9.98
2023-03-22T01:09:46.660Z,9.94
2023-03-22T01:12:16.459Z,10.14
2023-03-22T01:14:44.358Z,9.86
2023-03-22T01:20:12.250Z,9.84
2023-03-22T01:22:39.726Z,10.02
2023-03-22T01:25:09.661Z,9.88
2023-03-22T01:27:37.214Z,9.78
2023-03-22T01:30:05.651Z,9.77
2023-03-22T01:32:33.268Z,9.76
2023-03-22T01:38:13.640Z,9.84
2023-03-22T01:40:52.016Z,9.98
2023-03-22T01:43:19.624Z,10.04
2023-03-22T01:45:48.945Z,10.07
2023-03-22T01:51:25.834Z,9.93
2023-03-22T01:57:04.191Z,9.70
2023-03-22T01:59:41.371Z,9.59
2023-03-22T02:02:19.027Z,9.84
2023-03-22T02:04:57.916Z,9.85
2023-03-22T02:10:12.113Z,10.01
2023-03-22T02:15:59.903Z,9.98
2023-03-22T02:18:51.903Z,9.97
2023-03-22T02:21:32.862Z,10.22
2023-03-22T02:24:24.659Z,10.15
2023-03-22T02:27:07.403Z,10.04
2023-03-22T02:29:41.382Z,9.94
2023-03-22T02:35:34.906Z,10.14
2023-03-22T02:38:17.523Z,10.13
2023-03-22T02:40:51.627Z,10.22
2023-03-22T02:43:26.066Z,10.11
2023-03-22T02:45:57.256Z,10.22
2023-03-22T02:48:28.612Z,10.10
2023-03-22T02:53:49.190Z,10.09
2023-03-22T02:56:21.372Z,10.14
2023-03-22T02:58:51.848Z,10.13
2023-03-22T03:01:23.022Z,10.13
2023-03-22T03:03:51.949Z,10.04
2023-03-22T03:06:21.357Z,10.16
2023-03-22T03:08:51.614Z,10.27
2023-03-22T03:11:21.512Z,10.17
2023-03-22T03:13:50.719Z,10.27
2023-03-22T03:16:21.394Z,10.25
2023-03-22T03:18:52.302Z,10.15
2023-03-22T03:21:32.464Z,9.88
2023-03-22T03:24:19.730Z,9.89
2023-03-22T03:26:55.480Z,10.03
2023-03-22T03:32:29.065Z,10.01
2023-03-22T03:34:59.275Z,9.87
2023-03-22T03:40:31.873Z,9.88
2023-03-22T03:43:03.806Z,9.79
2023-03-22T03:45:31.838Z,9.87
2023-03-22T03:48:02.155Z,9.80
2023-03-22T03:50:29.842Z,9.99
2023-03-22T03:55:46.170Z,10.15
2023-03-22T03:58:16.688Z,10.20
2023-03-22T04:00:46.502Z,10.27
2023-03-22T04:03:23.020Z,10.33
2023-03-22T04:06:12.662Z,10.31
2023-03-22T04:11:44.083Z,10.37
2023-03-22T04:17:16.047Z,10.41
2023-03-22T04:19:44.591Z,10.48
2023-03-22T04:22:14.679Z,10.48
2023-03-22T04:25:19.533Z,10.39
2023-03-22T04:27:56.819Z,10.48
2023-03-22T04:33:32.403Z,10.51
2023-03-22T04:36:18.070Z,10.48
2023-03-22T04:39:05.854Z,10.36
2023-03-22T04:41:33.987Z,10.26
2023-03-22T04:44:03.075Z,10.25
2023-03-22T04:46:33.304Z,10.38
2023-03-22T04:49:06.750Z,10.44
2023-03-22T04:54:37.553Z,10.30
2023-03-22T04:57:05.496Z,10.31
2023-03-22T04:59:38.784Z,10.52
2023-03-22T05:02:06.319Z,10.39
2023-03-22T05:04:42.220Z,10.28
2023-03-22T05:07:19.146Z,10.31
2023-03-22T05:09:52.059Z,10.37
2023-03-22T05:12:19.686Z,10.47
2023-03-22T05:17:56.611Z,10.38
2023-03-22T05:20:25.916Z,10.37
2023-03-22T05:23:27.182Z,10.07
2023-03-22T05:25:58.157Z,10.27
2023-03-22T05:28:28.371Z,10.24
2023-03-22T05:31:11.540Z,10.28
2023-03-22T05:33:47.332Z,10.27
2023-03-22T05:36:20.338Z,10.18
2023-03-22T05:39:09.611Z,10.39
2023-03-22T05:42:14.549Z,10.36
2023-03-22T05:44:42.159Z,10.14
2023-03-22T05:50:17.746Z,10.12
2023-03-22T05:52:46.781Z,10.19
2023-03-22T05:55:34.543Z,9.99
2023-03-22T05:58:05.202Z,9.97
2023-03-22T06:03:29.116Z,10.09
2023-03-22T06:06:01.890Z,10.04
2023-03-22T06:08:41.668Z,10.32
2023-03-22T06:11:09.823Z,10.28
2023-03-22T06:13:38.200Z,10.38
2023-03-22T06:16:07.900Z,10.59
2023-03-22T06:18:35.795Z,10.81
2023-03-22T06:21:08.976Z,10.93
2023-03-22T06:23:37.774Z,10.97
2023-03-22T06:26:06.779Z,11.14
2023-03-22T06:31:33.113Z,11.50
2023-03-22T06:37:07.702Z,12.10
2023-03-22T06:39:38.602Z,12.37
2023-03-22T06:42:07.408Z,12.30
2023-03-22T06:44:35.348Z,12.41
2023-03-22T06:50:15.783Z,12.09
2023-03-22T06:56:11.687Z,13.47
2023-03-22T06:58:51.688Z,13.48
2023-03-22T07:01:19.553Z,12.86
2023-03-22T07:03:47.235Z,12.87
2023-03-22T07:06:16.822Z,12.47
2023-03-22T07:08:50.686Z,12.32
2023-03-22T07:11:22.084Z,12.06
2023-03-22T07:13:58.488Z,11.57
2023-03-22T07:16:29.413Z,11.84
2023-03-22T07:18:59.811Z,11.79
2023-03-22T07:21:27.342Z,11.92
2023-03-22T07:23:58.639Z,11.85
2023-03-22T07:26:30.436Z,11.89
2023-03-22T07:31:59.012Z,11.82
2023-03-22T07:34:32.691Z,12.27
2023-03-22T07:37:25.584Z,12.05
2023-03-22T07:39:53.155Z,12.19
2023-03-22T07:42:20.722Z,12.59
2023-03-22T07:45:09.183Z,12.97
2023-03-22T07:50:50.199Z,13.13
2023-03-22T07:53:17.667Z,12.61
2023-03-22T07:55:45.233Z,12.32
2023-03-22T07:58:12.939Z,12.56
2023-03-22T08:00:40.895Z,12.44
2023-03-22T08:03:28.538Z,12.35
2023-03-22T08:06:07.966Z,12.62
2023-03-22T08:08:37.726Z,12.13
2023-03-22T08:11:05.999Z,12.25
2023-03-22T08:13:34.040Z,12.54
2023-03-22T08:16:01.807Z,12.50
2023-03-22T08:18:31.345Z,12.37
2023-03-22T08:21:00.211Z,12.79
2023-03-22T08:23:41.417Z,13.17
2023-03-22T08:26:27.933Z,12.81
2023-03-22T08:28:58.224Z,12.96
2023-03-22T08:34:24.586Z,13.35
2023-03-22T08:36:52.651Z,13.61
2023-03-22T08:42:19.950Z,13.86
2023-03-22T08:44:47.645Z,14.06
2023-03-22T08:47:15.435Z,13.93
2023-03-22T08:52:46.628Z,13.93
2023-03-22T08:55:24.734Z,14.39
2023-03-22T08:58:12.702Z,14.75
2023-03-22T09:01:13.266Z,13.88
2023-03-22T09:06:52.675Z,14.87
2023-03-22T09:09:20.241Z,14.90
2023-03-22T09:12:07.283Z,15.07
2023-03-22T09:14:37.599Z,14.66
2023-03-22T09:17:05.530Z,14.95
2023-03-22T09:19:33.355Z,14.83
2023-03-22T09:22:01.913Z,14.29
2023-03-22T09:24:41.032Z,14.46
2023-03-22T09:27:08.549Z,14.81
2023-03-22T09:29:37.383Z,14.42
2023-03-22T09:32:09.080Z,14.01
2023-03-22T09:34:39.341Z,14.71
2023-03-22T09:37:07.607Z,14.52
2023-03-22T09:39:49.766Z,14.38
2023-03-22T09:45:29.882Z,15.35
2023-03-22T09:47:58.324Z,15.76
2023-03-22T09:50:27.626Z,15.39
2023-03-22T09:56:03.057Z,15.44
2023-03-22T09:58:34.506Z,15.09
2023-03-22T10:01:05.451Z,14.80
2023-03-22T10:06:31.958Z,15.84
2023-03-22T10:09:07.678Z,16.15
2023-03-22T10:11:44.403Z,15.65
2023-03-22T10:14:24.916Z,16.05
2023-03-22T10:16:56.649Z,15.32
2023-03-22T10:19:28.069Z,15.32
2023-03-22T10:21:57.274Z,16.15
2023-03-22T10:24:28.160Z,16.42
2023-03-22T10:26:55.945Z,16.69
2023-03-22T10:29:25.338Z,17.29
2023-03-22T10:31:55.499Z,16.82
2023-03-22T10:34:24.431Z,16.56
2023-03-22T10:36:53.267Z,15.52
2023-03-22T10:39:28.454Z,15.65
2023-03-22T10:41:58.240Z,15.96
2023-03-22T10:44:27.572Z,16.39
2023-03-22T10:46:56.977Z,15.83
2023-03-22T10:49:27.690Z,16.09
2023-03-22T10:55:01.217Z,16.54
2023-03-22T10:57:29.821Z,16.64
2023-03-22T10:59:58.030Z,16.40
2023-03-22T11:02:28.538Z,16.19
2023-03-22T11:04:58.515Z,16.45
2023-03-22T11:10:32.466Z,16.45
2023-03-22T11:16:09.726Z,16.97
2023-03-22T11:18:42.396Z,17.01
2023-03-22T11:21:12.208Z,17.39
2023-03-22T11:23:42.685Z,17.77
2023-03-22T11:29:16.379Z,17.26
2023-03-22T11:31:56.967Z,17.30
2023-03-22T11:34:27.820Z,16.84
2023-03-22T11:36:57.384Z,16.93
2023-03-22T11:39:28.173Z,17.02
2023-03-22T11:41:59.921Z,16.74
2023-03-22T11:44:28.411Z,16.87
2023-03-22T11:46:57.786Z,16.58
2023-03-22T11:49:29.126Z,16.52
2023-03-22T11:51:57.012Z,16.34
2023-03-22T11:57:26.285Z,16.64
2023-03-22T11:59:57.721Z,17.02
2023-03-22T12:02:27.751Z,16.98
2023-03-22T12:05:01.670Z,17.09
2023-03-22T12:10:29.738Z,16.43
2023-03-22T12:13:00.283Z,16.95
2023-03-22T12:15:30.579Z,17.28
2023-03-22T12:18:01.985Z,16.96
2023-03-22T12:20:37.499Z,17.18
2023-03-22T12:23:13.626Z,17.12
2023-03-22T12:25:42.138Z,17.40
2023-03-22T12:28:13.973Z,17.19
2023-03-22T12:30:44.470Z,16.75
2023-03-22T12:33:17.681Z,16.92
2023-03-22T12:35:47.161Z,17.08
2023-03-22T12:41:13.706Z,16.63
2023-03-22T12:46:49.403Z,16.30
2023-03-22T12:49:22.567Z,16.61
2023-03-22T12:51:52.992Z,16.85
2023-03-22T12:54:22.864Z,17.09
2023-03-22T12:59:50.768Z,17.03
2023-03-22T13:02:21.486Z,16.99
2023-03-22T13:04:54.601Z,16.72
2023-03-22T13:07:38.106Z,16.00
2023-03-22T13:10:47.568Z,16.36
2023-03-22T13:13:43.080Z,15.66
2023-03-22T13:16:24.619Z,15.45
2023-03-22T13:19:01.740Z,14.89
2023-03-22T13:21:31.064Z,14.78
2023-03-22T13:24:02.254Z,14.01
2023-03-22T13:26:36.327Z,14.16
2023-03-22T13:31:58.506Z,14.21
2023-03-22T13:34:37.385Z,14.02
2023-03-22T13:37:09.614Z,14.07
2023-03-22T13:39:39.168Z,13.74
2023-03-22T13:44:59.844Z,13.32
2023-03-22T13:47:35.768Z,13.35
2023-03-22T13:53:08.983Z,13.60
2023-03-22T13:55:42.540Z,13.72
2023-03-22T13:58:12.763Z,14.13
2023-03-22T14:03:43.856Z,14.30
2023-03-22T14:06:15.621Z,14.39
2023-03-22T14:08:44.043Z,14.43
2023-03-22T14:11:21.451Z,14.65
2023-03-22T14:13:51.215Z,14.67
2023-03-22T14:16:21.544Z,14.90
